createdAt,value
2023-03-16T00:00:55.486Z,11.80
2023-03-16T00:03:21.874Z,12.95
2023-03-16T00:05:50.544Z,12.32
2023-03-16T00:08:17.703Z,13.07
2023-03-16T00:10:46.875Z,13.88
2023-03-16T00:13:14.822Z,10.77
2023-03-16T00:15:42.108Z,12.75
2023-03-16T00:18:08.506Z,11.60
2023-03-16T00:20:35.226Z,11.95
2023-03-16T00:23:02.636Z,12.23
2023-03-16T00:25:29.604Z,12.60
2023-03-16T00:27:55.932Z,12.23
2023-03-16T00:30:22.847Z,14.05
2023-03-16T00:32:49.207Z,14.10
2023-03-16T00:35:17.085Z,14.38
2023-03-16T00:37:44.107Z,16.02
2023-03-16T00:40:12.425Z,14.07
2023-03-16T00:42:38.856Z,13.50
2023-03-16T00:45:06.191Z,12.75
2023-03-16T00:47:35.156Z,14.50
2023-03-16T00:50:02.255Z,13.27
2023-03-16T00:52:29.284Z,15.68
2023-03-16T00:54:57.950Z,15.55
2023-03-16T00:57:25.985Z,14.00
2023-03-16T00:59:52.644Z,12.00
2023-03-16T01:02:23.173Z,13.43
2023-03-16T01:04:50.415Z,13.75
2023-03-16T01:07:16.726Z,15.15
2023-03-16T01:09:43.867Z,13.77
2023-03-16T01:12:17.103Z,18.13
2023-03-16T01:17:15.064Z,15.93
2023-03-16T01:19:42.966Z,15.27
2023-03-16T01:22:11.496Z,18.77
2023-03-16T01:24:39.574Z,14.98
2023-03-16T01:27:07.734Z,15.45
2023-03-16T01:29:34.643Z,15.07
2023-03-16T01:32:01.908Z,17.30
2023-03-16T01:34:28.561Z,13.45
2023-03-16T01:36:55.920Z,14.02
2023-03-16T01:39:40.779Z,14.55
2023-03-16T01:42:08.330Z,15.65
2023-03-16T01:44:51.210Z,16.67
2023-03-16T01:49:48.080Z,14.10
2023-03-16T01:52:30.249Z,18.30
2023-03-16T01:55:04.324Z,10.23
2023-03-16T01:57:36.839Z,16.98
2023-03-16T02:00:19.061Z,14.57
2023-03-16T02:02:59.812Z,11.80
2023-03-16T02:05:42.199Z,15.98
2023-03-16T02:08:12.325Z,13.68
2023-03-16T02:10:40.162Z,16.35
2023-03-16T02:13:07.089Z,17.27
2023-03-16T02:15:35.941Z,18.08
2023-03-16T02:18:02.686Z,18.58
2023-03-16T02:20:47.395Z,16.23
2023-03-16T02:23:20.875Z,15.50
2023-03-16T02:26:10.772Z,16.48
2023-03-16T02:29:02.113Z,18.27
2023-03-16T02:31:30.476Z,19.58
2023-03-16T02:33:57.957Z,26.00
2023-03-16T02:36:24.393Z,16.05
2023-03-16T02:38:50.993Z,17.33
2023-03-16T02:44:10.837Z,22.42
2023-03-16T02:46:38.725Z,21.38
2023-03-16T02:49:17.353Z,14.32
2023-03-16T02:51:46.030Z,24.58
2023-03-16T02:54:12.768Z,17.13
2023-03-16T02:56:40.001Z,17.95
2023-03-16T02:59:09.145Z,12.98
2023-03-16T03:01:36.595Z,20.73
2023-03-16T03:04:04.396Z,15.48
2023-03-16T03:06:32.313Z,18.98
2023-03-16T03:08:59.447Z,18.73
2023-03-16T03:11:26.159Z,19.08
2023-03-16T03:13:53.069Z,17.88
2023-03-16T03:16:22.541Z,17.10
2023-03-16T03:18:50.119Z,18.80
2023-03-16T03:21:16.776Z,17.45
2023-03-16T03:23:46.399Z,17.42
2023-03-16T03:26:15.157Z,16.85
2023-03-16T03:28:44.607Z,19.23
2023-03-16T03:31:21.487Z,21.25
2023-03-16T03:33:48.432Z,18.92
2023-03-16T03:36:14.970Z,21.00
2023-03-16T03:38:43.449Z,17.92
2023-03-16T03:41:10.081Z,19.95
2023-03-16T03:43:38.524Z,33.78
2023-03-16T03:46:07.658Z,34.20
2023-03-16T03:48:34.486Z,31.92
2023-03-16T03:51:01.164Z,34.30
2023-03-16T03:53:46.401Z,24.33
2023-03-16T03:56:25.051Z,26.40
2023-03-16T03:58:51.497Z,27.08
2023-03-16T04:01:34.238Z,41.03
2023-03-16T04:04:00.665Z,35.65
2023-03-16T04:06:27.847Z,39.35
2023-03-16T04:08:55.032Z,34.95
2023-03-16T04:11:25.542Z,33.33
2023-03-16T04:13:55.948Z,33.95
2023-03-16T04:16:22.422Z,25.15
2023-03-16T04:18:56.091Z,26.63
2023-03-16T04:21:23.767Z,30.55
2023-03-16T04:23:54.127Z,25.10
2023-03-16T04:26:25.560Z,41.97
2023-03-16T04:28:52.896Z,34.55
2023-03-16T04:31:20.418Z,29.17
2023-03-16T04:33:47.789Z,30.60
2023-03-16T04:36:14.504Z,30.08
2023-03-16T04:38:43.253Z,34.65
2023-03-16T04:41:11.337Z,32.38
2023-03-16T04:43:44.095Z,22.02
2023-03-16T04:46:18.240Z,19.00
2023-03-16T04:48:44.649Z,19.05
2023-03-16T04:51:11.055Z,19.45
2023-03-16T04:53:41.515Z,18.33
2023-03-16T04:56:19.499Z,18.52
2023-03-16T04:58:50.939Z,20.10
2023-03-16T05:01:18.651Z,18.92
2023-03-16T05:03:46.408Z,22.38
2023-03-16T05:06:13.573Z,17.98
2023-03-16T05:08:41.173Z,17.92
2023-03-16T05:11:07.602Z,16.13
2023-03-16T05:13:38.334Z,22.65
2023-03-16T05:16:04.997Z,19.30
2023-03-16T05:18:36.268Z,22.90
2023-03-16T05:21:02.830Z,15.48
2023-03-16T05:23:40.733Z,22.83
2023-03-16T05:26:08.646Z,20.25
2023-03-16T05:28:37.205Z,21.25
2023-03-16T05:31:06.370Z,19.70
2023-03-16T05:33:38.976Z,22.90
2023-03-16T05:36:09.206Z,21.15
2023-03-16T05:38:39.046Z,20.70
2023-03-16T05:41:07.860Z,20.73
2023-03-16T05:43:44.983Z,20.65
2023-03-16T05:46:13.562Z,20.00
2023-03-16T05:48:39.989Z,20.17
2023-03-16T05:51:07.961Z,17.83
2023-03-16T05:53:35.402Z,18.48
2023-03-16T05:56:08.505Z,20.25
2023-03-16T05:58:39.652Z,17.83
2023-03-16T06:01:09.090Z,22.27
2023-03-16T06:03:36.576Z,20.67
2023-03-16T06:06:04.422Z,20.65
2023-03-16T06:08:35.457Z,22.85
2023-03-16T06:11:09.484Z,21.77
2023-03-16T06:13:36.273Z,17.83
2023-03-16T06:16:03.251Z,18.17
2023-03-16T06:18:29.934Z,20.13
2023-03-16T06:20:56.314Z,18.25
2023-03-16T06:23:23.675Z,19.27
2023-03-16T06:25:51.189Z,22.38
2023-03-16T06:28:21.238Z,19.27
2023-03-16T06:30:47.784Z,21.77
2023-03-16T06:33:14.250Z,22.67
2023-03-16T06:35:41.556Z,21.30
2023-03-16T06:38:16.387Z,19.77
2023-03-16T06:40:54.077Z,23.27
2023-03-16T06:43:21.927Z,20.77
2023-03-16T06:45:49.378Z,20.95
2023-03-16T06:48:16.109Z,22.15
2023-03-16T06:50:46.341Z,23.25
2023-03-16T06:53:14.065Z,20.17
2023-03-16T06:55:41.470Z,25.35
2023-03-16T06:58:07.906Z,22.33
2023-03-16T07:00:34.332Z,21.30
2023-03-16T07:03:01.861Z,21.92
2023-03-16T07:05:29.568Z,19.70
2023-03-16T07:07:57.986Z,19.90
2023-03-16T07:10:25.291Z,19.75
2023-03-16T07:12:51.781Z,20.20
2023-03-16T07:15:18.939Z,19.00
2023-03-16T07:17:45.890Z,23.17
2023-03-16T07:20:12.625Z,20.70
2023-03-16T07:22:40.067Z,20.98
2023-03-16T07:25:08.535Z,27.02
2023-03-16T07:27:34.980Z,22.67
2023-03-16T07:30:05.758Z,21.48
2023-03-16T07:32:34.686Z,27.80
2023-03-16T07:35:02.024Z,21.13
2023-03-16T07:37:32.153Z,21.17
2023-03-16T07:40:00.637Z,20.23
2023-03-16T07:42:27.171Z,20.77
2023-03-16T07:45:05.617Z,29.58
2023-03-16T07:47:33.605Z,22.33
2023-03-16T07:50:06.366Z,19.42
2023-03-16T07:52:35.865Z,35.30
2023-03-16T07:55:04.083Z,21.75
2023-03-16T07:57:31.307Z,21.02
2023-03-16T07:59:59.084Z,20.27
2023-03-16T08:02:26.415Z,20.88
2023-03-16T08:04:53.926Z,20.38
2023-03-16T08:07:20.338Z,21.70
2023-03-16T08:10:04.141Z,20.35
2023-03-16T08:12:41.646Z,22.90
2023-03-16T08:15:10.226Z,19.52
2023-03-16T08:17:36.623Z,20.40
2023-03-16T08:20:10.727Z,23.85
2023-03-16T08:22:37.518Z,30.75
2023-03-16T08:25:05.968Z,17.92
2023-03-16T08:27:33.059Z,19.52
2023-03-16T08:30:06.452Z,21.10
2023-03-16T08:32:35.423Z,18.98
2023-03-16T08:35:03.301Z,17.83
2023-03-16T08:37:29.803Z,20.00
2023-03-16T08:39:56.813Z,15.45
2023-03-16T08:42:23.547Z,19.48
2023-03-16T08:44:55.750Z,18.52
2023-03-16T08:47:22.907Z,19.98
2023-03-16T08:49:49.251Z,22.38
2023-03-16T08:52:16.803Z,20.20
2023-03-16T08:54:59.898Z,17.95
2023-03-16T08:57:28.607Z,18.88
2023-03-16T08:59:55.001Z,17.50
2023-03-16T09:02:22.057Z,15.35
2023-03-16T09:04:49.654Z,18.05
2023-03-16T09:07:16.163Z,18.67
2023-03-16T09:09:43.737Z,17.45
2023-03-16T09:12:10.946Z,17.95
2023-03-16T09:14:38.320Z,22.50
2023-03-16T09:17:07.602Z,16.83
2023-03-16T09:19:50.107Z,16.75
2023-03-16T09:22:19.409Z,19.00
2023-03-16T09:24:45.778Z,17.48
2023-03-16T09:27:12.317Z,17.80
2023-03-16T09:29:38.779Z,15.82
2023-03-16T09:32:05.320Z,19.88
2023-03-16T09:34:33.266Z,28.70
2023-03-16T09:37:00.425Z,14.20
2023-03-16T09:39:27.353Z,16.38
2023-03-16T09:42:09.355Z,16.15
2023-03-16T09:44:43.097Z,15.55
2023-03-16T09:47:11.933Z,17.30
2023-03-16T09:49:44.717Z,16.42
2023-03-16T09:52:23.328Z,18.27
2023-03-16T09:54:59.743Z,18.60
2023-03-16T09:57:29.845Z,14.68
2023-03-16T10:00:01.831Z,13.35
2023-03-16T10:02:42.898Z,14.37
2023-03-16T10:05:12.818Z,13.88
2023-03-16T10:07:48.386Z,14.57
2023-03-16T10:10:14.703Z,12.90
2023-03-16T10:12:50.250Z,15.02
2023-03-16T10:15:21.110Z,14.73
2023-03-16T10:18:07.047Z,13.88
2023-03-16T10:20:34.757Z,12.77
2023-03-16T10:23:13.249Z,13.20
2023-03-16T10:25:54.414Z,18.75
2023-03-16T10:28:27.581Z,14.88
2023-03-16T10:30:57.930Z,14.20
2023-03-16T10:33:33.412Z,16.52
2023-03-16T10:36:31.975Z,11.95
2023-03-16T10:39:01.678Z,14.27
2023-03-16T10:41:36.889Z,11.93
2023-03-16T10:44:14.597Z,12.38
2023-03-16T10:46:48.017Z,12.32
2023-03-16T10:49:27.013Z,12.32
2023-03-16T10:51:59.492Z,11.88
2023-03-16T10:54:33.494Z,12.45
2023-03-16T10:57:01.748Z,10.15
2023-03-16T10:59:34.943Z,13.60
2023-03-16T11:02:05.280Z,12.63
2023-03-16T11:04:33.169Z,11.40
2023-03-16T11:06:59.697Z,12.75
2023-03-16T11:09:32.997Z,11.15
2023-03-16T11:12:12.037Z,11.15
2023-03-16T11:14:38.373Z,9.93
2023-03-16T11:17:14.363Z,12.65
2023-03-16T11:19:54.387Z,11.48
2023-03-16T11:22:24.232Z,12.40
2023-03-16T11:25:02.872Z,13.77
2023-03-16T11:28:12.858Z,10.98
2023-03-16T11:30:56.139Z,12.13
2023-03-16T11:36:34.339Z,9.82
2023-03-16T11:39:10.694Z,10.27
2023-03-16T11:42:16.296Z,13.80
2023-03-16T11:45:12.671Z,9.88
2023-03-16T11:48:06.380Z,8.30
2023-03-16T11:51:02.617Z,10.98
2023-03-16T11:53:38.326Z,11.63
2023-03-16T11:56:19.934Z,14.52
2023-03-16T11:59:23.901Z,12.68
2023-03-16T12:02:15.905Z,13.85
2023-03-16T12:05:22.220Z,10.50
2023-03-16T12:08:30.444Z,12.65
2023-03-16T12:11:05.306Z,10.45
2023-03-16T12:13:54.552Z,11.40
2023-03-16T12:16:31.031Z,8.15
2023-03-16T12:19:06.928Z,9.98
2023-03-16T12:21:40.099Z,10.65
2023-03-16T12:24:15.825Z,10.48
2023-03-16T12:26:43.226Z,9.00
2023-03-16T12:29:26.258Z,8.70
2023-03-16T12:31:58.947Z,11.02
2023-03-16T12:34:34.388Z,8.10
2023-03-16T12:37:14.187Z,8.40
2023-03-16T12:39:45.662Z,10.07
2023-03-16T12:42:35.677Z,11.25
2023-03-16T12:45:15.780Z,8.35
2023-03-16T12:47:56.661Z,9.88
2023-03-16T12:50:24.327Z,10.70
2023-03-16T12:52:53.127Z,7.30
2023-03-16T12:55:21.033Z,12.18
2023-03-16T12:57:51.437Z,10.73
2023-03-16T13:00:18.677Z,8.30
2023-03-16T13:02:53.065Z,9.45
2023-03-16T13:05:31.740Z,7.95
2023-03-16T13:08:11.407Z,7.80
2023-03-16T13:10:39.149Z,8.48
2023-03-16T13:13:14.948Z,7.55
2023-03-16T13:15:45.003Z,8.30
2023-03-16T13:18:14.754Z,8.52
2023-03-16T13:20:57.423Z,10.35
2023-03-16T13:23:53.490Z,7.35
2023-03-16T13:26:43.269Z,9.38
2023-03-16T13:29:24.106Z,9.13
2023-03-16T13:31:52.489Z,14.07
2023-03-16T13:34:21.908Z,8.38
2023-03-16T13:36:53.001Z,9.88
2023-03-16T13:39:22.456Z,8.48
2023-03-16T13:42:01.865Z,10.18
2023-03-16T13:44:29.375Z,7.47
2023-03-16T13:46:56.136Z,7.95
2023-03-16T13:49:22.846Z,6.35
2023-03-16T13:51:49.396Z,9.45
2023-03-16T13:54:25.101Z,9.20
2023-03-16T13:56:55.645Z,8.98
2023-03-16T13:59:22.139Z,6.30
2023-03-16T14:01:49.176Z,7.40
2023-03-16T14:04:19.772Z,6.85
2023-03-16T14:06:58.233Z,6.10
2023-03-16T14:09:28.519Z,6.53
2023-03-16T14:11:56.056Z,8.48
2023-03-16T14:14:39.131Z,6.18
2023-03-16T14:17:12.575Z,7.60
2023-03-16T14:19:46.577Z,9.15
2023-03-16T14:22:15.666Z,12.05
2023-03-16T14:24:42.767Z,8.60
2023-03-16T14:27:17.756Z,13.38
2023-03-16T14:29:45.263Z,9.40
2023-03-16T14:32:30.015Z,9.18
2023-03-16T14:35:12.849Z,10.35
2023-03-16T14:37:39.569Z,8.38
2023-03-16T14:40:18.940Z,9.38
2023-03-16T14:42:45.561Z,10.05
2023-03-16T14:45:13.976Z,9.80
2023-03-16T14:47:46.440Z,10.55
2023-03-16T14:50:25.949Z,11.10
2023-03-16T14:52:54.691Z,8.43
2023-03-16T14:55:22.768Z,9.18
2023-03-16T14:57:51.097Z,9.55
2023-03-16T15:00:19.823Z,8.95
2023-03-16T15:03:14.462Z,9.07
2023-03-16T15:05:43.260Z,9.15
2023-03-16T15:08:27.036Z,11.15
2023-03-16T15:10:55.632Z,10.65
2023-03-16T15:13:34.874Z,10.65
2023-03-16T15:16:04.252Z,10.95
2023-03-16T15:18:31.237Z,10.93
2023-03-16T15:20:57.587Z,9.45
2023-03-16T15:23:24.017Z,11.30
2023-03-16T15:25:52.560Z,12.60
2023-03-16T15:28:21.880Z,10.15
2023-03-16T15:30:51.812Z,7.90
2023-03-16T15:33:18.491Z,8.02
2023-03-16T15:35:46.666Z,8.77
2023-03-16T15:38:20.567Z,7.80
2023-03-16T15:40:47.972Z,10.40
2023-03-16T15:43:16.904Z,8.98
2023-03-16T15:45:43.705Z,6.25
2023-03-16T15:48:11.152Z,5.88
2023-03-16T15:50:40.385Z,7.55
2023-03-16T15:53:29.507Z,8.73
2023-03-16T15:56:02.707Z,11.35
2023-03-16T15:58:30.579Z,5.20
2023-03-16T16:00:59.414Z,4.85
2023-03-16T16:03:27.533Z,4.88
2023-03-16T16:05:54.731Z,5.35
2023-03-16T16:08:21.628Z,7.20
2023-03-16T16:10:49.549Z,8.10
2023-03-16T16:13:37.414Z,5.90
2023-03-16T16:16:13.217Z,6.20
2023-03-16T16:18:40.094Z,5.93
2023-03-16T16:21:08.876Z,5.45
2023-03-16T16:23:36.956Z,5.88
2023-03-16T16:26:10.862Z,6.78
2023-03-16T16:28:37.228Z,7.63
2023-03-16T16:31:03.761Z,6.70
2023-03-16T16:33:34.785Z,5.78
2023-03-16T16:36:08.112Z,4.80
2023-03-16T16:38:34.494Z,5.32
2023-03-16T16:41:06.710Z,7.03
2023-03-16T16:43:43.446Z,10.60
2023-03-16T16:46:18.726Z,7.47
2023-03-16T16:48:48.115Z,7.07
2023-03-16T16:51:18.911Z,4.50
2023-03-16T16:53:46.646Z,7.35
2023-03-16T16:56:18.428Z,5.55
2023-03-16T16:58:46.322Z,7.18
2023-03-16T17:01:15.670Z,10.23
2023-03-16T17:03:42.331Z,7.10
2023-03-16T17:06:16.875Z,7.40
2023-03-16T17:08:47.345Z,10.95
2023-03-16T17:11:26.915Z,9.15
2023-03-16T17:13:55.172Z,5.03
2023-03-16T17:16:28.581Z,7.05
2023-03-16T17:18:55.423Z,8.25
2023-03-16T17:21:25.019Z,6.20
2023-03-16T17:23:56.023Z,8.07
2023-03-16T17:26:32.781Z,8.65
2023-03-16T17:29:06.674Z,7.88
2023-03-16T17:31:36.519Z,7.97
2023-03-16T17:34:14.387Z,8.32
2023-03-16T17:36:42.509Z,6.55
2023-03-16T17:39:29.983Z,7.55
2023-03-16T17:42:04.859Z,7.00
2023-03-16T17:44:37.973Z,7.75
2023-03-16T17:49:40.152Z,9.27
2023-03-16T17:52:18.569Z,8.93
2023-03-16T17:54:46.951Z,10.02
2023-03-16T17:57:24.572Z,7.28
2023-03-16T17:59:51.299Z,10.93
2023-03-16T18:02:43.840Z,10.98
2023-03-16T18:05:19.295Z,8.33
2023-03-16T18:07:46.708Z,8.73
2023-03-16T18:10:22.630Z,8.32
2023-03-16T18:12:54.347Z,5.95
2023-03-16T18:15:24.165Z,11.30
2023-03-16T18:17:50.942Z,6.88
2023-03-16T18:20:30.889Z,6.40
2023-03-16T18:22:58.882Z,8.27
2023-03-16T18:25:39.185Z,9.82
2023-03-16T18:28:07.526Z,6.93
2023-03-16T18:30:36.742Z,8.00
2023-03-16T18:33:05.119Z,8.38
2023-03-16T18:35:32.051Z,6.95
2023-03-16T18:37:58.694Z,7.90
2023-03-16T18:40:25.839Z,9.48
2023-03-16T18:42:54.128Z,6.63
2023-03-16T18:45:21.016Z,8.85
2023-03-16T18:47:52.562Z,8.07
2023-03-16T18:50:22.663Z,6.20
2023-03-16T18:52:49.997Z,8.60
2023-03-16T18:55:20.304Z,8.18
2023-03-16T18:57:51.240Z,10.32
2023-03-16T19:00:23.347Z,8.43
2023-03-16T19:02:56.118Z,12.00
2023-03-16T19:05:33.695Z,7.97
2023-03-16T19:08:00.638Z,9.52
2023-03-16T19:10:30.246Z,10.15
2023-03-16T19:12:56.659Z,9.00
2023-03-16T19:15:32.176Z,11.45
2023-03-16T19:17:59.304Z,11.32
2023-03-16T19:20:31.731Z,12.00
2023-03-16T19:23:07.215Z,14.40
2023-03-16T19:25:39.611Z,10.00
2023-03-16T19:28:12.122Z,11.00
2023-03-16T19:30:38.880Z,10.23
2023-03-16T19:33:18.031Z,13.43
2023-03-16T19:35:51.424Z,10.75
2023-03-16T19:38:19.456Z,8.98
2023-03-16T19:40:57.783Z,10.48
2023-03-16T19:43:25.078Z,9.60
2023-03-16T19:45:52.236Z,12.05
2023-03-16T19:48:24.946Z,9.50
2023-03-16T19:50:51.399Z,8.32
2023-03-16T19:53:22.369Z,9.68
2023-03-16T19:55:51.675Z,10.27
2023-03-16T19:58:30.873Z,13.38
2023-03-16T20:00:58.754Z,11.82
2023-03-16T20:03:25.461Z,13.20
2023-03-16T20:05:51.829Z,11.48
2023-03-16T20:08:20.397Z,11.32
2023-03-16T20:10:47.851Z,11.13
2023-03-16T20:13:14.408Z,15.35
2023-03-16T20:15:41.321Z,14.55
2023-03-16T20:18:13.756Z,10.57
2023-03-16T20:20:41.487Z,10.55
2023-03-16T20:23:24.334Z,12.98
2023-03-16T20:25:53.313Z,41.47
2023-03-16T20:28:24.222Z,42.63
2023-03-16T20:30:51.784Z,17.55
2023-03-16T20:33:23.809Z,11.57
2023-03-16T20:35:53.383Z,18.13
2023-03-16T20:38:20.307Z,10.85
2023-03-16T20:40:49.341Z,10.35
2023-03-16T20:43:31.284Z,10.38
2023-03-16T20:46:01.226Z,11.18
2023-03-16T20:48:28.316Z,12.15
2023-03-16T20:50:57.109Z,11.75
2023-03-16T20:53:23.733Z,12.82
2023-03-16T20:55:52.017Z,14.20
2023-03-16T20:58:22.648Z,12.88
2023-03-16T21:00:52.479Z,13.05
2023-03-16T21:03:24.822Z,11.73
2023-03-16T21:05:52.671Z,12.93
2023-03-16T21:08:20.198Z,15.75
2023-03-16T21:10:48.665Z,7.78
2023-03-16T21:13:30.942Z,18.98
2023-03-16T21:15:59.619Z,16.90
2023-03-16T21:18:26.779Z,10.57
2023-03-16T21:20:56.292Z,14.43
2023-03-16T21:23:24.062Z,18.38
2023-03-16T21:25:59.464Z,14.00
2023-03-16T21:28:28.975Z,10.07
2023-03-16T21:30:57.548Z,7.25
2023-03-16T21:33:35.266Z,7.65
2023-03-16T21:36:04.399Z,5.22
2023-03-16T21:38:32.014Z,6.05
2023-03-16T21:40:59.186Z,6.28
2023-03-16T21:43:26.007Z,7.60
2023-03-16T21:45:53.827Z,7.07
2023-03-16T21:48:25.099Z,7.35
2023-03-16T21:50:52.845Z,8.02
2023-03-16T21:53:28.584Z,6.50
2023-03-16T21:55:56.971Z,5.55
2023-03-16T21:58:24.386Z,6.50
2023-03-16T22:00:52.682Z,5.53
2023-03-16T22:03:26.330Z,6.63
2023-03-16T22:05:54.532Z,6.47
2023-03-16T22:08:24.241Z,5.55
2023-03-16T22:10:51.435Z,6.75
2023-03-16T22:13:19.097Z,6.43
2023-03-16T22:15:48.233Z,9.30
2023-03-16T22:18:36.839Z,7.60
2023-03-16T22:21:19.205Z,5.97
2023-03-16T22:23:45.862Z,6.23
2023-03-16T22:26:16.616Z,6.43
2023-03-16T22:28:43.622Z,5.72
2023-03-16T22:31:15.319Z,6.10
2023-03-16T22:33:43.283Z,6.10
2023-03-16T22:36:21.676Z,8.60
2023-03-16T22:38:56.956Z,7.95
2023-03-16T22:41:23.391Z,5.50
2023-03-16T22:43:50.100Z,7.20
2023-03-16T22:46:27.178Z,8.57
2023-03-16T22:48:55.233Z,8.48
2023-03-16T22:51:37.427Z,8.00
2023-03-16T22:54:15.775Z,7.28
2023-03-16T22:56:44.923Z,5.97
2023-03-16T22:59:15.980Z,6.30
2023-03-16T23:01:44.875Z,5.40
2023-03-16T23:04:15.323Z,7.57
2023-03-16T23:06:41.930Z,5.50
2023-03-16T23:09:12.075Z,6.22
2023-03-16T23:11:38.587Z,6.43
2023-03-16T23:14:12.506Z,7.70
2023-03-16T23:16:39.085Z,8.93
2023-03-16T23:19:24.572Z,7.60
2023-03-16T23:21:56.377Z,10.13
2023-03-16T23:24:23.467Z,10.52
2023-03-16T23:26:51.528Z,7.53
2023-03-16T23:29:18.565Z,7.55
2023-03-16T23:31:44.876Z,6.55
2023-03-16T23:34:13.604Z,7.00
2023-03-16T23:36:40.259Z,6.28
2023-03-16T23:39:07.208Z,9.38
2023-03-16T23:41:34.791Z,6.90
2023-03-16T23:44:02.640Z,5.10
2023-03-16T23:46:29.430Z,6.88
2023-03-16T23:48:57.951Z,7.30
2023-03-16T23:51:27.051Z,6.47
2023-03-16T23:53:53.703Z,7.70
2023-03-16T23:56:20.150Z,8.05
2023-03-16T23:58:46.534Z,10.10
